sensor_id;sensor_type;location;lat;lon;timestamp;P1;durP1;ratioP1;P2;durP2;ratioP2
71395;SDS011;59888;55.814;37.132;2023-08-06T00:00:50;11.63;;;6.30;;
71395;SDS011;59888;55.814;37.132;2023-08-06T00:03:16;13.68;;;6.85;;
71395;SDS011;59888;55.814;37.132;2023-08-06T00:05:42;14.38;;;6.45;;
71395;SDS011;59888;55.814;37.132;2023-08-06T00:08:11;11.13;;;6.05;;
71395;SDS011;59888;55.814;37.132;2023-08-06T00:10:39;14.02;;;6.20;;
71395;SDS011;59888;55.814;37.132;2023-08-06T00:13:07;13.85;;;6.72;;
71395;SDS011;59888;55.814;37.132;2023-08-06T00:15:33;9.60;;;5.68;;
71395;SDS011;59888;55.814;37.132;2023-08-06T00:22:01;9.00;;;6.10;;
71395;SDS011;59888;55.814;37.132;2023-08-06T00:24:27;11.05;;;6.13;;
71395;SDS011;59888;55.814;37.132;2023-08-06T00:26:53;12.32;;;6.30;;
71395;SDS011;59888;55.814;37.132;2023-08-06T00:29:19;13.40;;;6.13;;
71395;SDS011;59888;55.814;37.132;2023-08-06T00:31:46;10.55;;;6.03;;
71395;SDS011;59888;55.814;37.132;2023-08-06T00:34:12;10.43;;;6.70;;
71395;SDS011;59888;55.814;37.132;2023-08-06T00:36:37;9.70;;;5.63;;
71395;SDS011;59888;55.814;37.132;2023-08-06T00:39:03;12.02;;;6.05;;
71395;SDS011;59888;55.814;37.132;2023-08-06T00:41:29;11.65;;;6.03;;
71395;SDS011;59888;55.814;37.132;2023-08-06T00:43:55;12.32;;;6.18;;
71395;SDS011;59888;55.814;37.132;2023-08-06T00:46:22;11.43;;;5.88;;
71395;SDS011;59888;55.814;37.132;2023-08-06T00:48:48;13.20;;;6.25;;
71395;SDS011;59888;55.814;37.132;2023-08-06T00:51:14;11.30;;;5.80;;
71395;SDS011;59888;55.814;37.132;2023-08-06T00:53:40;12.25;;;6.40;;
71395;SDS011;59888;55.814;37.132;2023-08-06T00:56:07;10.95;;;5.78;;
71395;SDS011;59888;55.814;37.132;2023-08-06T00:58:34;11.10;;;6.13;;
71395;SDS011;59888;55.814;37.132;2023-08-06T01:01:02;13.23;;;6.43;;
71395;SDS011;59888;55.814;37.132;2023-08-06T01:03:28;12.15;;;6.57;;
71395;SDS011;59888;55.814;37.132;2023-08-06T01:05:54;12.40;;;6.40;;
71395;SDS011;59888;55.814;37.132;2023-08-06T01:08:27;13.52;;;6.07;;
71395;SDS011;59888;55.814;37.132;2023-08-06T01:11:31;13.50;;;5.88;;
71395;SDS011;59888;55.814;37.132;2023-08-06T01:14:07;14.93;;;6.18;;
71395;SDS011;59888;55.814;37.132;2023-08-06T01:16:50;12.30;;;6.18;;
71395;SDS011;59888;55.814;37.132;2023-08-06T01:19:17;11.60;;;6.40;;
71395;SDS011;59888;55.814;37.132;2023-08-06T01:21:44;10.65;;;6.68;;
71395;SDS011;59888;55.814;37.132;2023-08-06T01:24:11;12.30;;;5.97;;
71395;SDS011;59888;55.814;37.132;2023-08-06T01:26:45;12.57;;;6.60;;
71395;SDS011;59888;55.814;37.132;2023-08-06T01:29:30;12.40;;;6.05;;
71395;SDS011;59888;55.814;37.132;2023-08-06T01:34:30;12.95;;;6.07;;
71395;SDS011;59888;55.814;37.132;2023-08-06T01:36:58;12.98;;;6.70;;
71395;SDS011;59888;55.814;37.132;2023-08-06T01:39:26;13.18;;;6.47;;
71395;SDS011;59888;55.814;37.132;2023-08-06T01:41:52;10.38;;;6.00;;
71395;SDS011;59888;55.814;37.132;2023-08-06T01:44:18;9.02;;;5.88;;
71395;SDS011;59888;55.814;37.132;2023-08-06T01:46:44;11.23;;;6.20;;
71395;SDS011;59888;55.814;37.132;2023-08-06T01:49:10;13.50;;;5.88;;
71395;SDS011;59888;55.814;37.132;2023-08-06T01:51:36;10.10;;;6.00;;
71395;SDS011;59888;55.814;37.132;2023-08-06T01:54:02;9.65;;;5.93;;
71395;SDS011;59888;55.814;37.132;2023-08-06T01:56:28;9.23;;;5.90;;
71395;SDS011;59888;55.814;37.132;2023-08-06T01:58:54;11.80;;;6.05;;
71395;SDS011;59888;55.814;37.132;2023-08-06T02:01:20;11.38;;;5.88;;
71395;SDS011;59888;55.814;37.132;2023-08-06T02:03:46;10.80;;;6.15;;
71395;SDS011;59888;55.814;37.132;2023-08-06T02:06:12;10.70;;;6.03;;
71395;SDS011;59888;55.814;37.132;2023-08-06T02:08:38;11.35;;;5.65;;
71395;SDS011;59888;55.814;37.132;2023-08-06T02:11:05;7.82;;;5.55;;
71395;SDS011;59888;55.814;37.132;2023-08-06T02:13:31;9.25;;;5.70;;
71395;SDS011;59888;55.814;37.132;2023-08-06T02:15:57;12.30;;;6.03;;
71395;SDS011;59888;55.814;37.132;2023-08-06T02:18:25;10.07;;;5.47;;
71395;SDS011;59888;55.814;37.132;2023-08-06T02:20:57;11.10;;;6.05;;
71395;SDS011;59888;55.814;37.132;2023-08-06T02:23:24;9.65;;;5.60;;
71395;SDS011;59888;55.814;37.132;2023-08-06T02:26:01;11.77;;;5.60;;
71395;SDS011;59888;55.814;37.132;2023-08-06T02:28:28;9.43;;;5.95;;
71395;SDS011;59888;55.814;37.132;2023-08-06T02:30:55;9.55;;;5.65;;
71395;SDS011;59888;55.814;37.132;2023-08-06T02:33:21;10.55;;;5.50;;
71395;SDS011;59888;55.814;37.132;2023-08-06T02:35:47;9.52;;;5.50;;
71395;SDS011;59888;55.814;37.132;2023-08-06T02:38:14;12.07;;;6.07;;
71395;SDS011;59888;55.814;37.132;2023-08-06T02:40:45;12.07;;;5.45;;
71395;SDS011;59888;55.814;37.132;2023-08-06T02:43:12;11.35;;;6.05;;
71395;SDS011;59888;55.814;37.132;2023-08-06T02:45:39;11.98;;;5.88;;
71395;SDS011;59888;55.814;37.132;2023-08-06T02:48:05;10.35;;;5.82;;
71395;SDS011;59888;55.814;37.132;2023-08-06T02:50:37;9.77;;;5.70;;
71395;SDS011;59888;55.814;37.132;2023-08-06T02:53:06;10.43;;;5.67;;
71395;SDS011;59888;55.814;37.132;2023-08-06T02:55:32;12.20;;;5.57;;
71395;SDS011;59888;55.814;37.132;2023-08-06T02:58:00;10.13;;;6.03;;
71395;SDS011;59888;55.814;37.132;2023-08-06T03:00:31;7.88;;;5.30;;
71395;SDS011;59888;55.814;37.132;2023-08-06T03:02:59;9.25;;;5.35;;
71395;SDS011;59888;55.814;37.132;2023-08-06T03:05:50;9.80;;;5.45;;
71395;SDS011;59888;55.814;37.132;2023-08-06T03:08:20;9.38;;;5.65;;
71395;SDS011;59888;55.814;37.132;2023-08-06T03:10:50;9.15;;;5.40;;
71395;SDS011;59888;55.814;37.132;2023-08-06T03:13:17;8.85;;;5.18;;
71395;SDS011;59888;55.814;37.132;2023-08-06T03:18:20;9.85;;;5.28;;
71395;SDS011;59888;55.814;37.132;2023-08-06T03:20:48;9.38;;;5.57;;
71395;SDS011;59888;55.814;37.132;2023-08-06T03:23:15;10.65;;;5.50;;
71395;SDS011;59888;55.814;37.132;2023-08-06T03:25:41;9.43;;;5.00;;
71395;SDS011;59888;55.814;37.132;2023-08-06T03:28:08;7.88;;;5.13;;
71395;SDS011;59888;55.814;37.132;2023-08-06T03:30:35;9.02;;;5.10;;
71395;SDS011;59888;55.814;37.132;2023-08-06T03:33:02;8.85;;;4.90;;
71395;SDS011;59888;55.814;37.132;2023-08-06T03:35:28;9.38;;;4.82;;
71395;SDS011;59888;55.814;37.132;2023-08-06T03:37:55;9.60;;;5.43;;
71395;SDS011;59888;55.814;37.132;2023-08-06T03:40:21;7.07;;;4.82;;
71395;SDS011;59888;55.814;37.132;2023-08-06T03:42:47;8.15;;;5.15;;
71395;SDS011;59888;55.814;37.132;2023-08-06T03:45:13;7.00;;;4.80;;
71395;SDS011;59888;55.814;37.132;2023-08-06T03:47:41;9.82;;;5.30;;
71395;SDS011;59888;55.814;37.132;2023-08-06T03:50:08;9.82;;;4.90;;
71395;SDS011;59888;55.814;37.132;2023-08-06T03:52:34;10.10;;;5.20;;
71395;SDS011;59888;55.814;37.132;2023-08-06T03:55:00;8.98;;;4.60;;
71395;SDS011;59888;55.814;37.132;2023-08-06T03:57:27;7.65;;;5.07;;
71395;SDS011;59888;55.814;37.132;2023-08-06T03:59:53;8.55;;;5.03;;
71395;SDS011;59888;55.814;37.132;2023-08-06T04:02:19;10.32;;;4.63;;
71395;SDS011;59888;55.814;37.132;2023-08-06T04:04:45;7.90;;;4.93;;
71395;SDS011;59888;55.814;37.132;2023-08-06T04:07:11;7.43;;;4.45;;
71395;SDS011;59888;55.814;37.132;2023-08-06T04:12:31;10.68;;;4.95;;
71395;SDS011;59888;55.814;37.132;2023-08-06T04:15:02;11.05;;;4.90;;
71395;SDS011;59888;55.814;37.132;2023-08-06T04:17:33;7.97;;;4.57;;
71395;SDS011;59888;55.814;37.132;2023-08-06T04:19:59;10.05;;;4.80;;
71395;SDS011;59888;55.814;37.132;2023-08-06T04:22:26;11.27;;;4.85;;
71395;SDS011;59888;55.814;37.132;2023-08-06T04:24:52;9.48;;;4.72;;
71395;SDS011;59888;55.814;37.132;2023-08-06T04:27:18;7.65;;;4.82;;
71395;SDS011;59888;55.814;37.132;2023-08-06T04:29:47;7.68;;;5.20;;
71395;SDS011;59888;55.814;37.132;2023-08-06T04:32:13;13.48;;;5.00;;
71395;SDS011;59888;55.814;37.132;2023-08-06T04:34:45;8.32;;;5.13;;
71395;SDS011;59888;55.814;37.132;2023-08-06T04:37:12;8.85;;;4.88;;
71395;SDS011;59888;55.814;37.132;2023-08-06T04:39:38;8.63;;;4.70;;
71395;SDS011;59888;55.814;37.132;2023-08-06T04:42:04;6.43;;;4.55;;
71395;SDS011;59888;55.814;37.132;2023-08-06T04:44:31;10.82;;;5.05;;
71395;SDS011;59888;55.814;37.132;2023-08-06T04:47:00;7.22;;;4.90;;
71395;SDS011;59888;55.814;37.132;2023-08-06T04:49:25;9.57;;;4.60;;
71395;SDS011;59888;55.814;37.132;2023-08-06T04:51:51;7.15;;;4.40;;
71395;SDS011;59888;55.814;37.132;2023-08-06T04:54:18;8.73;;;4.50;;
71395;SDS011;59888;55.814;37.132;2023-08-06T04:56:43;7.93;;;4.95;;
71395;SDS011;59888;55.814;37.132;2023-08-06T04:59:09;7.18;;;4.45;;
71395;SDS011;59888;55.814;37.132;2023-08-06T05:01:35;9.07;;;5.00;;
71395;SDS011;59888;55.814;37.132;2023-08-06T05:04:04;8.65;;;5.10;;
71395;SDS011;59888;55.814;37.132;2023-08-06T05:06:30;8.60;;;5.28;;
71395;SDS011;59888;55.814;37.132;2023-08-06T05:08:56;7.97;;;5.22;;
71395;SDS011;59888;55.814;37.132;2023-08-06T05:11:22;9.57;;;5.40;;
71395;SDS011;59888;55.814;37.132;2023-08-06T05:13:48;10.55;;;5.43;;
71395;SDS011;59888;55.814;37.132;2023-08-06T05:16:14;6.60;;;4.95;;
71395;SDS011;59888;55.814;37.132;2023-08-06T05:18:39;8.50;;;5.88;;
71395;SDS011;59888;55.814;37.132;2023-08-06T05:21:07;7.25;;;5.13;;
71395;SDS011;59888;55.814;37.132;2023-08-06T05:23:33;7.80;;;4.88;;
71395;SDS011;59888;55.814;37.132;2023-08-06T05:25:59;7.95;;;5.10;;
71395;SDS011;59888;55.814;37.132;2023-08-06T05:28:24;8.10;;;4.38;;
71395;SDS011;59888;55.814;37.132;2023-08-06T05:30:51;7.95;;;4.43;;
71395;SDS011;59888;55.814;37.132;2023-08-06T05:33:16;9.82;;;4.50;;
71395;SDS011;59888;55.814;37.132;2023-08-06T05:35:42;7.57;;;4.40;;
71395;SDS011;59888;55.814;37.132;2023-08-06T05:38:08;6.63;;;4.00;;
71395;SDS011;59888;55.814;37.132;2023-08-06T05:40:34;8.75;;;4.40;;
71395;SDS011;59888;55.814;37.132;2023-08-06T05:43:00;6.50;;;4.40;;
71395;SDS011;59888;55.814;37.132;2023-08-06T05:45:26;11.48;;;4.22;;
71395;SDS011;59888;55.814;37.132;2023-08-06T05:47:52;5.28;;;3.88;;
71395;SDS011;59888;55.814;37.132;2023-08-06T05:50:19;7.50;;;4.22;;
71395;SDS011;59888;55.814;37.132;2023-08-06T05:52:45;10.18;;;4.38;;
71395;SDS011;59888;55.814;37.132;2023-08-06T05:55:11;5.70;;;4.20;;
71395;SDS011;59888;55.814;37.132;2023-08-06T05:57:37;11.20;;;4.47;;
71395;SDS011;59888;55.814;37.132;2023-08-06T06:00:03;7.18;;;4.43;;
71395;SDS011;59888;55.814;37.132;2023-08-06T06:02:39;9.05;;;4.07;;
71395;SDS011;59888;55.814;37.132;2023-08-06T06:05:05;9.35;;;4.13;;
71395;SDS011;59888;55.814;37.132;2023-08-06T06:07:31;7.90;;;4.28;;
71395;SDS011;59888;55.814;37.132;2023-08-06T06:09:57;7.82;;;4.28;;
71395;SDS011;59888;55.814;37.132;2023-08-06T06:12:23;5.22;;;3.92;;
71395;SDS011;59888;55.814;37.132;2023-08-06T06:14:51;6.90;;;4.00;;
71395;SDS011;59888;55.814;37.132;2023-08-06T06:17:17;6.90;;;4.32;;
71395;SDS011;59888;55.814;37.132;2023-08-06T06:19:43;5.43;;;3.72;;
71395;SDS011;59888;55.814;37.132;2023-08-06T06:22:09;6.00;;;4.15;;
71395;SDS011;59888;55.814;37.132;2023-08-06T06:24:35;5.60;;;4.20;;
71395;SDS011;59888;55.814;37.132;2023-08-06T06:27:01;8.32;;;3.97;;
71395;SDS011;59888;55.814;37.132;2023-08-06T06:29:27;5.00;;;4.25;;
71395;SDS011;59888;55.814;37.132;2023-08-06T06:31:53;8.00;;;4.50;;
71395;SDS011;59888;55.814;37.132;2023-08-06T06:34:19;6.22;;;3.70;;
71395;SDS011;59888;55.814;37.132;2023-08-06T06:36:45;7.55;;;4.20;;
71395;SDS011;59888;55.814;37.132;2023-08-06T06:39:11;9.63;;;3.88;;
71395;SDS011;59888;55.814;37.132;2023-08-06T06:41:37;7.45;;;4.10;;
71395;SDS011;59888;55.814;37.132;2023-08-06T06:44:11;6.07;;;4.20;;
71395;SDS011;59888;55.814;37.132;2023-08-06T06:46:36;6.57;;;3.90;;
71395;SDS011;59888;55.814;37.132;2023-08-06T06:49:02;6.95;;;4.20;;
71395;SDS011;59888;55.814;37.132;2023-08-06T06:51:28;6.20;;;4.00;;
71395;SDS011;59888;55.814;37.132;2023-08-06T06:53:54;9.35;;;4.05;;
71395;SDS011;59888;55.814;37.132;2023-08-06T06:56:20;5.65;;;3.88;;
71395;SDS011;59888;55.814;37.132;2023-08-06T06:58:46;7.85;;;4.30;;
71395;SDS011;59888;55.814;37.132;2023-08-06T07:01:12;6.45;;;4.32;;
71395;SDS011;59888;55.814;37.132;2023-08-06T07:03:38;9.18;;;3.92;;
71395;SDS011;59888;55.814;37.132;2023-08-06T07:06:04;7.13;;;4.03;;
71395;SDS011;59888;55.814;37.132;2023-08-06T07:08:31;7.13;;;3.67;;
71395;SDS011;59888;55.814;37.132;2023-08-06T07:11:04;7.30;;;4.30;;
71395;SDS011;59888;55.814;37.132;2023-08-06T07:13:31;8.00;;;4.07;;
71395;SDS011;59888;55.814;37.132;2023-08-06T07:15:58;6.85;;;3.97;;
71395;SDS011;59888;55.814;37.132;2023-08-06T07:18:24;7.25;;;4.05;;
71395;SDS011;59888;55.814;37.132;2023-08-06T07:20:51;4.60;;;3.67;;
71395;SDS011;59888;55.814;37.132;2023-08-06T07:23:21;7.75;;;3.60;;
71395;SDS011;59888;55.814;37.132;2023-08-06T07:25:48;9.18;;;4.00;;
71395;SDS011;59888;55.814;37.132;2023-08-06T07:28:14;6.30;;;3.35;;
71395;SDS011;59888;55.814;37.132;2023-08-06T07:30:42;5.57;;;3.85;;
71395;SDS011;59888;55.814;37.132;2023-08-06T07:33:09;6.00;;;3.40;;
71395;SDS011;59888;55.814;37.132;2023-08-06T07:35:35;6.18;;;3.67;;
71395;SDS011;59888;55.814;37.132;2023-08-06T07:38:02;7.05;;;4.30;;
71395;SDS011;59888;55.814;37.132;2023-08-06T07:40:28;4.90;;;3.50;;
71395;SDS011;59888;55.814;37.132;2023-08-06T07:42:54;5.20;;;3.67;;
71395;SDS011;59888;55.814;37.132;2023-08-06T07:45:20;4.70;;;3.33;;
71395;SDS011;59888;55.814;37.132;2023-08-06T07:47:46;6.88;;;3.35;;
71395;SDS011;59888;55.814;37.132;2023-08-06T07:50:13;6.07;;;3.47;;
71395;SDS011;59888;55.814;37.132;2023-08-06T07:52:39;7.35;;;3.42;;
71395;SDS011;59888;55.814;37.132;2023-08-06T07:55:05;8.00;;;3.83;;
71395;SDS011;59888;55.814;37.132;2023-08-06T07:57:32;6.38;;;3.80;;
71395;SDS011;59888;55.814;37.132;2023-08-06T08:00:00;6.00;;;3.60;;
71395;SDS011;59888;55.814;37.132;2023-08-06T08:02:28;6.35;;;3.00;;
71395;SDS011;59888;55.814;37.132;2023-08-06T08:04:55;5.78;;;3.53;;
71395;SDS011;59888;55.814;37.132;2023-08-06T08:07:21;5.43;;;3.03;;
71395;SDS011;59888;55.814;37.132;2023-08-06T08:09:47;7.43;;;3.50;;
71395;SDS011;59888;55.814;37.132;2023-08-06T08:12:14;4.55;;;3.42;;
71395;SDS011;59888;55.814;37.132;2023-08-06T08:14:40;8.55;;;3.80;;
71395;SDS011;59888;55.814;37.132;2023-08-06T08:17:06;6.55;;;3.28;;
71395;SDS011;59888;55.814;37.132;2023-08-06T08:19:32;5.07;;;3.00;;
71395;SDS011;59888;55.814;37.132;2023-08-06T08:21:58;5.20;;;3.20;;
71395;SDS011;59888;55.814;37.132;2023-08-06T08:24:24;6.85;;;3.40;;
71395;SDS011;59888;55.814;37.132;2023-08-06T08:26:50;9.50;;;3.72;;
71395;SDS011;59888;55.814;37.132;2023-08-06T08:29:17;4.40;;;3.55;;
71395;SDS011;59888;55.814;37.132;2023-08-06T08:31:44;6.13;;;3.67;;
71395;SDS011;59888;55.814;37.132;2023-08-06T08:34:10;7.55;;;3.78;;
71395;SDS011;59888;55.814;37.132;2023-08-06T08:36:37;6.75;;;3.80;;
71395;SDS011;59888;55.814;37.132;2023-08-06T08:39:03;6.90;;;3.38;;
71395;SDS011;59888;55.814;37.132;2023-08-06T08:41:30;4.95;;;3.55;;
71395;SDS011;59888;55.814;37.132;2023-08-06T08:43:58;6.65;;;3.88;;
71395;SDS011;59888;55.814;37.132;2023-08-06T08:46:27;5.95;;;3.97;;
71395;SDS011;59888;55.814;37.132;2023-08-06T08:48:57;8.35;;;3.75;;
71395;SDS011;59888;55.814;37.132;2023-08-06T08:51:28;7.38;;;3.72;;
71395;SDS011;59888;55.814;37.132;2023-08-06T08:53:55;6.45;;;3.92;;
71395;SDS011;59888;55.814;37.132;2023-08-06T08:56:24;7.07;;;3.95;;
71395;SDS011;59888;55.814;37.132;2023-08-06T08:58:51;11.40;;;4.22;;
71395;SDS011;59888;55.814;37.132;2023-08-06T09:01:19;6.03;;;4.00;;
71395;SDS011;59888;55.814;37.132;2023-08-06T09:03:47;12.50;;;3.90;;
71395;SDS011;59888;55.814;37.132;2023-08-06T09:06:13;6.13;;;3.90;;
71395;SDS011;59888;55.814;37.132;2023-08-06T09:08:44;6.63;;;4.20;;
71395;SDS011;59888;55.814;37.132;2023-08-06T09:11:19;6.82;;;4.20;;
71395;SDS011;59888;55.814;37.132;2023-08-06T09:13:48;10.93;;;4.30;;
71395;SDS011;59888;55.814;37.132;2023-08-06T09:16:15;6.60;;;3.92;;
71395;SDS011;59888;55.814;37.132;2023-08-06T09:18:41;7.40;;;3.90;;
71395;SDS011;59888;55.814;37.132;2023-08-06T09:21:07;6.90;;;4.05;;
71395;SDS011;59888;55.814;37.132;2023-08-06T09:23:39;6.88;;;4.45;;
71395;SDS011;59888;55.814;37.132;2023-08-06T09:26:05;9.80;;;4.20;;
71395;SDS011;59888;55.814;37.132;2023-08-06T09:28:36;7.40;;;4.35;;
71395;SDS011;59888;55.814;37.132;2023-08-06T09:31:04;5.90;;;4.05;;
71395;SDS011;59888;55.814;37.132;2023-08-06T09:33:30;6.57;;;4.13;;
71395;SDS011;59888;55.814;37.132;2023-08-06T09:35:56;6.22;;;4.10;;
71395;SDS011;59888;55.814;37.132;2023-08-06T09:38:22;10.68;;;4.30;;
71395;SDS011;59888;55.814;37.132;2023-08-06T09:40:48;8.45;;;4.50;;
71395;SDS011;59888;55.814;37.132;2023-08-06T09:43:14;7.32;;;4.13;;
71395;SDS011;59888;55.814;37.132;2023-08-06T09:45:40;7.60;;;4.30;;
71395;SDS011;59888;55.814;37.132;2023-08-06T09:48:07;6.03;;;4.00;;
71395;SDS011;59888;55.814;37.132;2023-08-06T09:50:35;6.70;;;4.25;;
71395;SDS011;59888;55.814;37.132;2023-08-06T09:53:06;8.02;;;4.60;;
71395;SDS011;59888;55.814;37.132;2023-08-06T09:55:36;7.60;;;4.35;;
71395;SDS011;59888;55.814;37.132;2023-08-06T09:58:02;5.97;;;4.50;;
71395;SDS011;59888;55.814;37.132;2023-08-06T10:00:29;5.72;;;4.00;;
71395;SDS011;59888;55.814;37.132;2023-08-06T10:03:00;10.07;;;4.38;;
71395;SDS011;59888;55.814;37.132;2023-08-06T10:05:26;7.40;;;4.53;;
71395;SDS011;59888;55.814;37.132;2023-08-06T10:07:53;7.18;;;4.28;;
71395;SDS011;59888;55.814;37.132;2023-08-06T10:10:21;7.40;;;4.22;;
71395;SDS011;59888;55.814;37.132;2023-08-06T10:12:49;6.75;;;4.28;;
71395;SDS011;59888;55.814;37.132;2023-08-06T10:15:26;8.48;;;4.40;;
71395;SDS011;59888;55.814;37.132;2023-08-06T10:17:55;7.50;;;3.60;;
71395;SDS011;59888;55.814;37.132;2023-08-06T10:20:23;7.07;;;4.15;;
71395;SDS011;59888;55.814;37.132;2023-08-06T10:23:02;6.60;;;3.90;;
71395;SDS011;59888;55.814;37.132;2023-08-06T10:25:33;7.60;;;4.40;;
71395;SDS011;59888;55.814;37.132;2023-08-06T10:28:00;7.70;;;4.40;;
71395;SDS011;59888;55.814;37.132;2023-08-06T10:30:34;6.07;;;4.00;;
71395;SDS011;59888;55.814;37.132;2023-08-06T10:38:16;7.75;;;4.57;;
71395;SDS011;59888;55.814;37.132;2023-08-06T10:43:30;7.68;;;4.35;;
71395;SDS011;59888;55.814;37.132;2023-08-06T10:45:59;9.50;;;4.63;;
71395;SDS011;59888;55.814;37.132;2023-08-06T10:50:59;10.25;;;4.38;;
71395;SDS011;59888;55.814;37.132;2023-08-06T10:53:26;8.75;;;4.25;;
71395;SDS011;59888;55.814;37.132;2023-08-06T10:55:52;9.48;;;4.63;;
71395;SDS011;59888;55.814;37.132;2023-08-06T10:58:18;5.47;;;4.28;;
71395;SDS011;59888;55.814;37.132;2023-08-06T11:00:44;7.15;;;4.28;;
71395;SDS011;59888;55.814;37.132;2023-08-06T11:03:09;9.10;;;4.90;;
71395;SDS011;59888;55.814;37.132;2023-08-06T11:05:35;6.38;;;4.50;;
71395;SDS011;59888;55.814;37.132;2023-08-06T11:08:02;10.20;;;4.63;;
71395;SDS011;59888;55.814;37.132;2023-08-06T11:10:28;6.40;;;4.97;;
71395;SDS011;59888;55.814;37.132;2023-08-06T11:12:54;5.00;;;4.25;;
71395;SDS011;59888;55.814;37.132;2023-08-06T11:15:25;6.40;;;4.75;;
71395;SDS011;59888;55.814;37.132;2023-08-06T11:17:51;6.20;;;4.63;;
71395;SDS011;59888;55.814;37.132;2023-08-06T11:20:18;8.48;;;4.55;;
71395;SDS011;59888;55.814;37.132;2023-08-06T11:22:47;7.78;;;4.80;;
71395;SDS011;59888;55.814;37.132;2023-08-06T11:25:13;10.07;;;4.85;;
71395;SDS011;59888;55.814;37.132;2023-08-06T11:27:39;5.55;;;4.78;;
71395;SDS011;59888;55.814;37.132;2023-08-06T11:30:05;9.82;;;4.95;;
71395;SDS011;59888;55.814;37.132;2023-08-06T11:32:46;5.28;;;4.75;;
71395;SDS011;59888;55.814;37.132;2023-08-06T11:35:13;6.47;;;4.63;;
71395;SDS011;59888;55.814;37.132;2023-08-06T11:37:43;9.43;;;5.00;;
71395;SDS011;59888;55.814;37.132;2023-08-06T11:40:14;7.05;;;5.00;;
71395;SDS011;59888;55.814;37.132;2023-08-06T11:42:40;9.23;;;5.07;;
71395;SDS011;59888;55.814;37.132;2023-08-06T11:45:08;6.72;;;4.57;;
71395;SDS011;59888;55.814;37.132;2023-08-06T11:47:40;7.18;;;4.70;;
71395;SDS011;59888;55.814;37.132;2023-08-06T11:50:15;6.43;;;4.93;;
71395;SDS011;59888;55.814;37.132;2023-08-06T11:52:47;7.80;;;4.85;;
71395;SDS011;59888;55.814;37.132;2023-08-06T11:58:36;10.80;;;4.82;;
71395;SDS011;59888;55.814;37.132;2023-08-06T12:01:02;9.00;;;4.82;;
71395;SDS011;59888;55.814;37.132;2023-08-06T12:03:28;6.70;;;4.88;;
71395;SDS011;59888;55.814;37.132;2023-08-06T12:05:56;8.43;;;4.57;;
71395;SDS011;59888;55.814;37.132;2023-08-06T12:08:26;8.07;;;5.00;;
71395;SDS011;59888;55.814;37.132;2023-08-06T12:10:56;10.25;;;4.75;;
71395;SDS011;59888;55.814;37.132;2023-08-06T12:13:50;6.53;;;4.80;;
71395;SDS011;59888;55.814;37.132;2023-08-06T12:16:21;5.68;;;4.55;;
71395;SDS011;59888;55.814;37.132;2023-08-06T12:18:50;6.88;;;4.85;;
71395;SDS011;59888;55.814;37.132;2023-08-06T12:21:17;9.27;;;4.75;;
71395;SDS011;59888;55.814;37.132;2023-08-06T12:23:47;6.70;;;4.75;;
71395;SDS011;59888;55.814;37.132;2023-08-06T12:26:15;6.72;;;4.80;;
71395;SDS011;59888;55.814;37.132;2023-08-06T12:28:42;5.97;;;4.43;;
71395;SDS011;59888;55.814;37.132;2023-08-06T12:31:11;6.05;;;4.53;;
71395;SDS011;59888;55.814;37.132;2023-08-06T12:33:38;9.50;;;4.70;;
71395;SDS011;59888;55.814;37.132;2023-08-06T12:36:07;7.18;;;4.93;;
71395;SDS011;59888;55.814;37.132;2023-08-06T12:38:34;7.65;;;4.60;;
71395;SDS011;59888;55.814;37.132;2023-08-06T12:41:00;5.43;;;4.80;;
71395;SDS011;59888;55.814;37.132;2023-08-06T12:43:26;7.07;;;4.80;;
71395;SDS011;59888;55.814;37.132;2023-08-06T12:45:53;9.65;;;4.82;;
71395;SDS011;59888;55.814;37.132;2023-08-06T12:48:19;6.47;;;4.50;;
71395;SDS011;59888;55.814;37.132;2023-08-06T12:50:45;6.78;;;4.40;;
71395;SDS011;59888;55.814;37.132;2023-08-06T12:53:12;7.25;;;4.43;;
71395;SDS011;59888;55.814;37.132;2023-08-06T12:55:38;6.65;;;4.65;;
71395;SDS011;59888;55.814;37.132;2023-08-06T12:58:09;7.57;;;4.45;;
71395;SDS011;59888;55.814;37.132;2023-08-06T13:00:36;7.97;;;4.55;;
71395;SDS011;59888;55.814;37.132;2023-08-06T13:03:03;7.47;;;4.80;;
71395;SDS011;59888;55.814;37.132;2023-08-06T13:05:28;9.43;;;4.68;;
71395;SDS011;59888;55.814;37.132;2023-08-06T13:07:55;6.40;;;4.50;;
71395;SDS011;59888;55.814;37.132;2023-08-06T13:10:21;6.32;;;5.00;;
71395;SDS011;59888;55.814;37.132;2023-08-06T13:12:47;7.38;;;4.50;;
71395;SDS011;59888;55.814;37.132;2023-08-06T13:15:13;8.02;;;4.03;;
71395;SDS011;59888;55.814;37.132;2023-08-06T13:17:40;8.52;;;4.10;;
71395;SDS011;59888;55.814;37.132;2023-08-06T13:20:06;4.97;;;3.83;;
71395;SDS011;59888;55.814;37.132;2023-08-06T13:22:32;4.28;;;3.47;;
71395;SDS011;59888;55.814;37.132;2023-08-06T13:24:58;9.35;;;3.90;;
71395;SDS011;59888;55.814;37.132;2023-08-06T13:27:23;5.70;;;3.65;;
71395;SDS011;59888;55.814;37.132;2023-08-06T13:29:49;10.73;;;4.20;;
71395;SDS011;59888;55.814;37.132;2023-08-06T13:32:15;5.10;;;3.47;;
71395;SDS011;59888;55.814;37.132;2023-08-06T13:34:42;5.55;;;3.90;;
71395;SDS011;59888;55.814;37.132;2023-08-06T13:37:08;9.60;;;3.50;;
71395;SDS011;59888;55.814;37.132;2023-08-06T13:39:34;7.82;;;3.60;;
71395;SDS011;59888;55.814;37.132;2023-08-06T13:42:00;4.65;;;3.83;;
71395;SDS011;59888;55.814;37.132;2023-08-06T13:44:26;5.88;;;3.70;;
71395;SDS011;59888;55.814;37.132;2023-08-06T13:46:54;5.95;;;3.50;;
71395;SDS011;59888;55.814;37.132;2023-08-06T13:49:20;4.35;;;3.53;;
71395;SDS011;59888;55.814;37.132;2023-08-06T13:51:46;5.03;;;3.83;;
71395;SDS011;59888;55.814;37.132;2023-08-06T13:54:12;7.18;;;3.58;;
71395;SDS011;59888;55.814;37.132;2023-08-06T13:56:37;5.38;;;3.63;;
71395;SDS011;59888;55.814;37.132;2023-08-06T13:59:03;6.22;;;3.30;;
71395;SDS011;59888;55.814;37.132;2023-08-06T14:01:30;5.05;;;3.53;;
71395;SDS011;59888;55.814;37.132;2023-08-06T14:03:55;3.92;;;3.40;;
71395;SDS011;59888;55.814;37.132;2023-08-06T14:06:22;5.00;;;3.45;;
71395;SDS011;59888;55.814;37.132;2023-08-06T14:08:47;8.75;;;3.22;;
71395;SDS011;59888;55.814;37.132;2023-08-06T14:11:13;5.35;;;3.50;;
71395;SDS011;59888;55.814;37.132;2023-08-06T14:13:42;5.88;;;3.67;;
71395;SDS011;59888;55.814;37.132;2023-08-06T14:16:08;5.70;;;3.25;;
71395;SDS011;59888;55.814;37.132;2023-08-06T14:18:33;4.25;;;3.28;;
71395;SDS011;59888;55.814;37.132;2023-08-06T14:21:02;5.20;;;3.65;;
71395;SDS011;59888;55.814;37.132;2023-08-06T14:23:29;4.65;;;3.60;;
71395;SDS011;59888;55.814;37.132;2023-08-06T14:25:55;8.38;;;3.97;;
71395;SDS011;59888;55.814;37.132;2023-08-06T14:28:21;7.07;;;3.83;;
71395;SDS011;59888;55.814;37.132;2023-08-06T14:30:47;8.38;;;3.45;;
71395;SDS011;59888;55.814;37.132;2023-08-06T14:33:13;5.53;;;3.40;;
71395;SDS011;59888;55.814;37.132;2023-08-06T14:35:39;5.88;;;3.28;;
71395;SDS011;59888;55.814;37.132;2023-08-06T14:38:05;6.40;;;3.42;;
71395;SDS011;59888;55.814;37.132;2023-08-06T14:40:32;6.40;;;3.58;;
71395;SDS011;59888;55.814;37.132;2023-08-06T14:43:00;7.25;;;3.30;;
71395;SDS011;59888;55.814;37.132;2023-08-06T14:45:27;6.20;;;3.40;;
71395;SDS011;59888;55.814;37.132;2023-08-06T14:47:53;6.43;;;3.40;;
71395;SDS011;59888;55.814;37.132;2023-08-06T14:50:21;6.68;;;3.30;;
71395;SDS011;59888;55.814;37.132;2023-08-06T14:52:47;7.18;;;3.45;;
71395;SDS011;59888;55.814;37.132;2023-08-06T14:55:17;6.50;;;3.30;;
71395;SDS011;59888;55.814;37.132;2023-08-06T15:00:15;4.32;;;3.20;;